Time;durP1;ratioP1;P1;durP2;ratioP2;P2;SDS_P1;SDS_P2;PMS_P1;PMS_P2;Temp;Humidity;BMP_temperature;BMP_pressure;BME280_temperature;BME280_humidity;BME280_pressure;Samples;Min_cycle;Max_cycle;Signal;HPM_P1;HPM_P2
2022/10/08 08:38:06;;;;;;;;;21.00;17.00;;;;;11.78;100.00;102229.94;5089218;27;49930;-76
2022/10/08 08:40:31;;;;;;;;;9.00;9.00;;;;;11.69;100.00;102164.69;5048501;28;50153;-75
2022/10/08 08:42:56;;;;;;;;;12.25;10.50;;;;;11.80;99.84;102130.94;5039454;28;50030;-81
2022/10/08 08:45:25;;;;;;;;;10.75;9.00;;;;;12.81;97.47;102250.47;5046116;28;52325;-81
2022/10/08 08:48:04;;;;;;;;;5.00;5.00;;;;;13.00;95.69;102255.53;5043160;28;49768;-79
2022/10/08 08:50:38;;;;;;;;;8.50;5.00;;;;;13.20;94.18;102248.34;5046099;28;49806;-76
2022/10/08 08:53:04;;;;;;;;;3.75;3.50;;;;;13.05;92.94;102195.97;5034564;28;49854;-75
2022/10/08 08:55:39;;;;;;;;;3.00;3.00;;;;;12.99;90.67;102161.47;5045341;28;50539;-76
2022/10/08 08:58:19;;;;;;;;;9.25;7.00;;;;;13.70;89.77;102259.63;5046678;28;49749;-75
2022/10/08 09:00:53;;;;;;;;;8.25;5.00;;;;;13.11;88.61;102135.50;5071036;27;49816;-75
2022/10/08 09:03:28;;;;;;;;;7.25;6.50;;;;;13.84;87.60;102237.22;5026797;28;50138;-74
2022/10/08 09:05:58;;;;;;;;;6.25;3.75;;;;;13.85;86.48;102212.63;5043411;28;50607;-76
2022/10/08 09:08:35;;;;;;;;;5.75;3.75;;;;;14.21;84.71;102257.72;5029348;28;49898;-77
2022/10/08 09:11:03;;;;;;;;;6.50;5.25;;;;;14.15;83.98;102211.75;5026326;28;49936;-75
2022/10/08 09:13:45;;;;;;;;;4.75;4.75;;;;;14.48;83.36;102267.34;5026684;28;49842;-81
2022/10/08 09:16:17;;;;;;;;;5.00;3.50;;;;;14.58;82.40;102245.63;5033182;28;50686;-85
2022/10/08 09:19:01;;;;;;;;;4.75;4.00;;;;;13.74;80.50;102092.63;5072668;27;49854;-84
2022/10/08 09:21:30;;;;;;;;;4.00;2.00;;;;;14.23;79.90;102165.31;5043706;28;49857;-77
2022/10/08 09:23:55;;;;;;;;;5.25;5.25;;;;;14.54;79.33;102212.00;5036269;28;49837;-76
2022/10/08 09:26:23;;;;;;;;;6.75;5.75;;;;;14.41;79.12;102181.69;5036533;27;50781;-78
2022/10/08 09:28:53;;;;;;;;;6.50;4.00;;;;;14.37;78.00;102174.50;5042942;28;49818;-75
2022/10/08 09:31:22;;;;;;;;;3.00;3.00;;;;;15.04;78.01;102254.78;5057918;28;49740;-78
2022/10/08 09:34:04;;;;;;;;;2.00;2.00;;;;;14.45;75.81;102158.91;5053035;28;50023;-87
2022/10/08 09:36:40;;;;;;;;;3.25;3.25;;;;;15.06;74.03;102239.88;5054277;28;49804;-82
2022/10/08 09:39:19;;;;;;;;;5.00;4.00;;;;;15.21;73.00;102248.16;5035978;28;49724;-78
2022/10/08 09:41:46;;;;;;;;;4.75;4.00;;;;;15.42;71.41;102277.81;5026583;28;49902;-84
2022/10/08 09:44:48;;;;;;;;;3.00;3.00;;;;;15.54;72.11;102268.38;5035993;28;49975;-81
2022/10/08 09:47:22;;;;;;;;;3.50;2.75;;;;;15.44;70.66;102225.84;5048830;28;50817;-81
2022/10/08 09:50:17;;;;;;;;;3.75;3.75;;;;;15.72;70.64;102259.16;5014773;28;49705;-80
2022/10/08 09:52:45;;;;;;;;;5.00;3.00;;;;;15.77;68.34;102253.09;5014092;28;49851;-84
2022/10/08 09:55:30;;;;;;;;;5.50;2.00;;;;;16.00;68.28;102271.28;5022512;28;49809;-86
2022/10/08 09:58:02;;;;;;;;;2.25;2.25;;;;;16.03;68.30;102252.84;5025235;28;50584;-91
2022/10/08 10:00:43;;;;;;;;;5.00;3.00;;;;;16.25;68.20;102267.44;5025048;28;49743;-86
2022/10/08 10:03:16;;;;;;;;;3.75;3.00;;;;;16.38;67.37;102271.22;5026163;28;49646;-81
2022/10/08 10:05:42;;;;;;;;;4.25;3.00;;;;;15.64;66.59;102117.81;5016041;28;49939;-79
2022/10/08 10:08:50;;;;;;;;;5.00;2.50;;;;;16.63;66.95;102275.28;5020827;28;50692;-79
2022/10/08 10:11:58;;;;;;;;;1.25;1.25;;;;;16.63;64.46;102272.63;5029221;28;49781;-81
2022/10/08 10:14:45;;;;;;;;;1.50;1.50;;;;;16.68;62.95;102272.72;5027067;28;50041;-81
2022/10/08 10:17:36;;;;;;;;;3.50;1.50;;;;;16.75;62.81;102278.19;5019773;28;49796;-81
2022/10/08 10:20:29;;;;;;;;;5.00;4.00;;;;;16.82;62.32;102274.81;5013041;28;49839;-80
2022/10/08 10:23:14;;;;;;;;;1.75;1.75;;;;;16.68;61.77;102262.09;5024029;28;49907;-77
2022/10/08 10:25:39;;;;;;;;;4.00;1.00;;;;;16.80;59.98;102278.31;5011719;28;49878;-77
2022/10/08 10:28:39;;;;;;;;;2.00;1.00;;;;;16.82;58.90;102281.88;5020006;28;49777;-71
2022/10/08 10:31:22;;;;;;;;;1.25;1.25;;;;;16.82;58.35;102281.88;5053275;28;52067;-80
2022/10/08 10:33:57;;;;;;;;;4.00;2.00;;;;;17.00;58.88;102279.56;5035168;28;49911;-80
2022/10/08 10:36:28;;;;;;;;;1.50;1.50;;;;;16.92;59.49;102229.91;5031992;28;49854;-82
2022/10/08 10:39:16;;;;;;;;;3.50;1.25;;;;;17.16;57.90;102270.13;5031821;28;49733;-81
2022/10/08 10:41:48;;;;;;;;;1.25;1.25;;;;;16.58;57.42;102189.44;5032267;28;49628;-80
2022/10/08 10:44:35;;;;;;;;;2.50;2.00;;;;;16.97;58.08;102244.13;5056524;28;49867;-79
2022/10/08 10:47:02;;;;;;;;;0.50;0.00;;;;;16.94;57.70;102237.00;5032782;28;49570;-80
2022/10/08 10:49:34;;;;;;;;;6.00;3.00;;;;;17.13;58.27;102278.91;5033875;28;49816;-82
2022/10/08 10:52:37;;;;;;;;;2.00;1.00;;;;;17.14;55.82;102279.81;5036947;28;50700;-80
2022/10/08 10:55:37;;;;;;;;;3.00;1.75;;;;;17.13;55.49;102283.34;5027792;28;50048;-83
2022/10/08 10:58:31;;;;;;;;;1.00;1.00;;;;;17.14;56.35;102264.78;5013671;28;49685;-89
2022/10/08 11:01:27;;;;;;;;;0.75;0.75;;;;;17.39;54.30;102279.38;5030396;28;49942;-82
2022/10/08 11:04:07;;;;;;;;;1.00;1.00;;;;;17.38;54.17;102280.25;5032610;28;50777;-75
2022/10/08 11:07:00;;;;;;;;;1.75;1.75;;;;;16.90;54.29;102192.75;5011440;28;50143;-75
2022/10/08 11:09:37;;;;;;;;;1.50;1.50;;;;;17.24;54.60;102231.34;5013242;28;50080;-77
2022/10/08 11:12:18;;;;;;;;;2.50;1.25;;;;;17.67;52.75;102286.03;5013825;28;49785;-79
2022/10/08 11:15:12;;;;;;;;;3.50;2.00;;;;;17.76;51.89;102277.38;5025750;28;49864;-78
2022/10/08 11:18:15;;;;;;;;;1.00;1.00;;;;;17.77;50.85;102271.19;5031468;28;49781;-79
2022/10/08 11:21:01;;;;;;;;;0.25;0.25;;;;;17.51;51.21;102238.88;5037108;28;49618;-78
2022/10/08 11:23:44;;;;;;;;;1.50;1.50;;;;;17.68;51.40;102263.91;5029986;28;50053;-75
2022/10/08 11:26:24;;;;;;;;;1.00;1.00;;;;;17.80;50.70;102280.94;5033894;28;49888;-76
2022/10/08 11:28:55;;;;;;;;;1.00;0.50;;;;;17.88;51.48;102276.66;5014916;28;49827;-77
2022/10/08 11:31:51;;;;;;;;;2.00;2.00;;;;;17.32;50.85;102202.28;5030743;28;49404;-77
2022/10/08 11:34:29;;;;;;;;;1.25;1.00;;;;;17.22;49.20;102187.06;5036724;28;49907;-74
2022/10/08 11:37:00;;;;;;;;;1.50;0.75;;;;;17.70;48.73;102278.16;5030223;28;50694;-76
2022/10/08 11:39:38;;;;;;;;;0.00;0.00;;;;;17.55;49.46;102275.19;5065775;27;49878;-76
2022/10/08 11:42:09;;;;;;;;;2.00;1.00;;;;;16.62;50.18;102124.13;5030687;28;49741;-74
2022/10/08 11:44:36;;;;;;;;;1.00;0.00;;;;;17.58;50.52;102277.03;5034249;28;49741;-75
2022/10/08 11:47:34;;;;;;;;;2.00;1.00;;;;;17.62;49.38;102266.47;5031626;28;50163;-85
2022/10/08 11:50:01;;;;;;;;;0.00;0.00;;;;;17.72;47.74;102264.88;5032781;28;49923;-75
2022/10/08 11:52:34;;;;;;;;;1.00;1.00;;;;;17.75;47.15;102251.63;5024857;28;49827;-74
2022/10/08 11:55:23;;;;;;;;;1.25;0.50;;;;;17.70;47.45;102240.06;5010635;28;49692;-74
2022/10/08 11:57:58;;;;;;;;;1.00;1.00;;;;;17.86;47.68;102259.78;5022774;28;50732;-75
2022/10/08 12:00:42;;;;;;;;;1.75;1.50;;;;;17.86;47.94;102246.50;5027331;28;49759;-75
2022/10/08 12:03:38;;;;;;;;;1.00;1.00;;;;;17.98;48.11;102244.91;5026674;28;50045;-74
2022/10/08 12:06:22;;;;;;;;;0.25;0.25;;;;;17.79;47.33;102202.13;5024533;28;50045;-75
2022/10/08 12:08:57;;;;;;;;;0.00;0.00;;;;;18.01;48.39;102214.81;5037041;28;51491;-76
2022/10/08 12:11:45;;;;;;;;;2.25;1.00;;;;;18.06;48.24;102237.06;5045124;27;49882;-76
2022/10/08 12:14:10;;;;;;;;;2.00;2.00;;;;;18.10;48.40;102228.22;5028437;28;49654;-77
2022/10/08 12:16:47;;;;;;;;;1.00;1.00;;;;;18.17;47.84;102226.56;5030028;28;50301;-76
2022/10/08 12:19:34;;;;;;;;;1.00;1.00;;;;;18.22;48.24;102228.38;5028393;28;51090;-76
2022/10/08 12:22:05;;;;;;;;;3.00;1.00;;;;;18.35;47.28;102224.13;5023176;28;50540;-77
2022/10/08 12:24:36;;;;;;;;;2.25;2.00;;;;;18.64;46.89;102229.78;5011625;28;49870;-77
2022/10/08 12:27:23;;;;;;;;;0.00;0.00;;;;;18.71;45.23;102223.66;5028973;28;49862;-82
2022/10/08 12:30:12;;;;;;;;;2.50;1.25;;;;;18.73;46.67;102231.69;5028887;28;49903;-78
2022/10/08 12:32:38;;;;;;;;;2.75;2.00;;;;;18.85;46.51;102211.41;5018169;28;49880;-79
2022/10/08 12:35:04;;;;;;;;;2.00;1.00;;;;;18.87;45.79;102206.09;5022423;28;49759;-79
2022/10/08 12:37:57;;;;;;;;;2.25;2.25;;;;;19.11;44.69;102230.28;5031220;28;50273;-80
2022/10/08 12:40:54;;;;;;;;;1.00;1.00;;;;;19.01;44.67;102224.84;5038140;28;49839;-79
2022/10/08 12:43:40;;;;;;;;;0.75;0.75;;;;;19.16;45.10;102225.88;5011767;28;49888;-81
2022/10/08 12:46:32;;;;;;;;;2.75;1.75;;;;;18.93;46.33;102168.03;5029815;28;49811;-80
2022/10/08 12:49:13;;;;;;;;;1.00;1.00;;;;;19.29;46.62;102218.00;5030004;28;49892;-73
2022/10/08 12:51:46;;;;;;;;;1.00;1.00;;;;;19.20;46.68;102209.94;5015418;28;50566;-84
2022/10/08 12:54:22;;;;;;;;;2.75;1.00;;;;;19.00;47.08;102180.47;5038311;28;49768;-78
2022/10/08 12:56:50;;;;;;;;;1.50;1.00;;;;;18.87;45.45;102176.81;5014844;28;49990;-80
2022/10/08 12:59:17;;;;;;;;;2.00;1.00;;;;;18.94;45.74;102212.38;5013198;28;49791;-84
2022/10/08 13:01:43;;;;;;;;;1.75;1.75;;;;;18.65;45.07;102190.81;5019328;28;49912;-77
2022/10/08 13:04:19;;;;;;;;;0.00;0.00;;;;;18.76;44.54;102203.34;5029590;28;49823;-80
2022/10/08 13:06:45;;;;;;;;;1.00;1.00;;;;;18.63;44.91;102190.75;5017017;28;49844;-79
2022/10/08 13:09:31;;;;;;;;;0.75;0.75;;;;;18.71;45.24;102202.38;5067128;27;49971;-75
2022/10/08 13:12:02;;;;;;;;;2.75;1.75;;;;;18.68;44.97;102198.81;5037244;28;49961;-78
2022/10/08 13:14:37;;;;;;;;;0.50;0.50;;;;;18.79;44.07;102197.16;5025717;28;49796;-78
2022/10/08 13:17:03;;;;;;;;;2.00;2.00;;;;;18.74;44.04;102159.88;5031558;28;49857;-79
2022/10/08 13:19:38;;;;;;;;;1.00;1.00;;;;;18.80;43.64;102122.66;5011224;28;50014;-81
2022/10/08 13:22:24;;;;;;;;;4.25;2.00;;;;;19.18;43.69;102156.69;5024011;28;50802;-80
2022/10/08 13:24:49;;;;;;;;;2.50;1.75;;;;;19.38;43.48;102173.69;5034309;28;50059;-78
2022/10/08 13:27:29;;;;;;;;;1.00;1.00;;;;;19.55;43.95;102187.13;5014209;28;49864;-79
2022/10/08 13:29:56;;;;;;;;;2.00;1.00;;;;;19.09;44.33;102128.22;5034869;28;49933;-80
2022/10/08 13:32:25;;;;;;;;;1.00;1.00;;;;;19.36;44.98;102194.09;5022486;28;51414;-80
2022/10/08 13:34:52;;;;;;;;;1.25;1.25;;;;;19.25;45.50;102193.13;5030688;28;49800;-82
2022/10/08 13:37:20;;;;;;;;;0.00;0.00;;;;;19.19;45.66;102194.84;5032800;28;49777;-81
2022/10/08 13:39:51;;;;;;;;;2.50;1.00;;;;;18.91;46.32;102160.00;5017456;28;49993;-81
2022/10/08 13:42:19;;;;;;;;;2.50;2.50;;;;;18.67;46.16;102141.19;5018648;28;50548;-81
2022/10/08 13:44:45;;;;;;;;;1.75;1.00;;;;;18.39;45.65;102129.34;5033787;28;49812;-78
2022/10/08 13:47:16;;;;;;;;;2.00;2.00;;;;;18.52;46.47;102190.63;5033464;28;49682;-78
2022/10/08 13:49:42;;;;;;;;;3.00;2.00;;;;;18.24;46.44;102173.50;5033998;28;49837;-78
2022/10/08 13:52:16;;;;;;;;;4.00;2.75;;;;;18.10;46.96;102144.97;5032699;28;49889;-82
2022/10/08 13:54:42;;;;;;;;;2.00;2.00;;;;;17.89;46.77;102119.91;5033657;28;50007;-80
2022/10/08 13:57:07;;;;;;;;;2.25;0.75;;;;;18.38;48.07;102186.03;5033736;28;49687;-78
2022/10/08 13:59:36;;;;;;;;;2.00;1.50;;;;;18.22;46.54;102155.72;5016727;28;49827;-79
2022/10/08 14:02:01;;;;;;;;;1.25;1.25;;;;;18.22;46.61;102166.34;5027368;28;51499;-75
2022/10/08 14:04:26;;;;;;;;;3.00;3.00;;;;;18.20;46.62;102153.06;5029783;28;49715;-77
2022/10/08 14:06:54;;;;;;;;;1.75;1.75;;;;;18.25;46.86;102148.69;5022159;28;54100;-76
2022/10/08 14:09:22;;;;;;;;;3.25;2.00;;;;;18.19;47.24;102121.16;5024092;28;50061;-77
2022/10/08 14:11:54;;;;;;;;;2.00;2.00;;;;;18.25;46.36;102130.09;5032648;28;49848;-78
2022/10/08 14:14:24;;;;;;;;;5.00;3.00;;;;;18.49;45.73;102179.06;5019699;28;50106;-79
2022/10/08 14:16:50;;;;;;;;;2.75;1.75;;;;;18.41;45.37;102165.69;5031200;28;49916;-80
2022/10/08 14:19:17;;;;;;;;;2.50;1.00;;;;;18.39;44.25;102150.59;5030870;28;49716;-77
2022/10/08 14:21:47;;;;;;;;;2.00;2.00;;;;;18.09;43.34;102090.91;5030410;28;50643;-80
2022/10/08 14:24:13;;;;;;;;;0.50;0.25;;;;;18.45;42.46;102145.38;5021718;28;50086;-78
2022/10/08 14:26:38;;;;;;;;;0.00;0.00;;;;;18.55;42.82;102149.91;5031145;28;49515;-77
2022/10/08 14:29:09;;;;;;;;;2.75;0.00;;;;;18.71;42.58;102166.91;5031916;28;49802;-77
2022/10/08 14:31:38;;;;;;;;;1.00;1.00;;;;;18.53;40.88;102133.94;5022032;28;50662;-80
2022/10/08 14:34:08;;;;;;;;;1.00;1.00;;;;;18.74;40.95;102172.28;5020214;28;50019;-78
2022/10/08 14:36:45;;;;;;;;;0.50;0.50;;;;;18.77;41.21;102161.66;5036738;28;49817;-80
2022/10/08 14:39:16;;;;;;;;;0.00;0.00;;;;;18.26;40.26;102073.41;5025344;28;49996;-90
2022/10/08 14:42:00;;;;;;;;;0.75;0.75;;;;;17.41;38.90;101932.53;5021281;28;52381;-84
2022/10/08 14:44:28;;;;;;;;;2.00;1.00;;;;;17.64;39.20;101988.53;5028332;27;49850;-84
2022/10/08 14:46:54;;;;;;;;;2.00;0.50;;;;;17.99;39.53;102046.53;5015967;28;50176;-80
2022/10/08 14:49:20;;;;;;;;;2.00;2.00;;;;;18.58;40.26;102150.81;5012725;28;49947;-82
2022/10/08 14:51:46;;;;;;;;;1.00;1.00;;;;;18.67;41.13;102171.31;5029879;28;51202;-80
2022/10/08 14:54:12;;;;;;;;;1.00;1.00;;;;;18.68;40.90;102165.13;5026078;28;49908;-81
2022/10/08 14:56:37;;;;;;;;;2.50;2.00;;;;;18.51;41.69;102134.78;5054688;28;49815;-83
2022/10/08 14:59:03;;;;;;;;;2.00;2.00;;;;;18.63;41.59;102163.28;5032942;28;49765;-79
2022/10/08 15:01:29;;;;;;;;;2.00;1.00;;;;;17.88;42.71;102042.88;5045353;28;50718;-79
2022/10/08 15:03:55;;;;;;;;;4.00;3.00;;;;;18.21;43.24;102117.63;5063519;28;49380;-77
2022/10/08 15:06:20;;;;;;;;;3.00;2.00;;;;;18.22;42.94;102119.41;5032985;28;49705;-81
2022/10/08 15:08:46;;;;;;;;;3.00;3.00;;;;;18.46;43.17;102160.44;5039960;28;49769;-83
2022/10/08 15:11:12;;;;;;;;;4.00;4.00;;;;;18.40;43.34;102155.94;5033723;28;55429;-75
2022/10/08 15:13:37;;;;;;;;;1.00;1.00;;;;;18.47;42.87;102154.25;5031658;28;49736;-75
2022/10/08 15:16:03;;;;;;;;;4.00;1.50;;;;;18.43;42.54;102165.69;5032641;28;49900;-74
2022/10/08 15:18:30;;;;;;;;;3.50;3.50;;;;;18.42;43.75;102155.94;5040558;28;49507;-75
2022/10/08 15:20:57;;;;;;;;;2.25;1.50;;;;;18.39;43.20;102158.59;5034579;28;49476;-76
2022/10/08 15:23:24;;;;;;;;;1.50;1.00;;;;;18.20;43.43;102130.91;5028305;28;49923;-78
2022/10/08 15:26:01;;;;;;;;;1.25;1.00;;;;;18.00;43.43;102112.97;5025176;28;50193;-75
2022/10/08 15:28:30;;;;;;;;;2.50;1.00;;;;;18.26;43.54;102158.44;5030451;28;49578;-74
2022/10/08 15:31:06;;;;;;;;;0.50;0.50;;;;;18.23;43.64;102157.50;5023959;28;50974;-78
2022/10/08 15:33:55;;;;;;;;;2.25;2.00;;;;;18.22;43.33;102156.63;5028550;28;49826;-75
2022/10/08 15:36:27;;;;;;;;;1.00;1.00;;;;;18.17;42.96;102153.03;5020054;28;49954;-76
2022/10/08 15:38:58;;;;;;;;;2.25;2.25;;;;;18.12;42.89;102149.41;5029235;28;49806;-73
2022/10/08 15:41:24;;;;;;;;;4.00;3.00;;;;;18.06;43.05;102149.34;5029296;28;49765;-78
2022/10/08 15:43:50;;;;;;;;;2.00;1.00;;;;;17.80;42.97;102111.84;5035926;28;49800;-76
2022/10/08 15:46:17;;;;;;;;;1.50;1.50;;;;;18.03;42.91;102154.63;5029133;28;49713;-74
2022/10/08 15:48:53;;;;;;;;;4.00;1.00;;;;;17.95;42.95;102150.97;5035256;28;49746;-77
2022/10/08 15:51:20;;;;;;;;;1.75;1.00;;;;;17.83;43.17;102143.75;5027435;28;49917;-78
2022/10/08 15:53:46;;;;;;;;;3.00;3.00;;;;;17.95;43.29;102153.63;5025676;28;49953;-74
2022/10/08 15:56:11;;;;;;;;;3.00;2.00;;;;;17.95;42.44;102154.53;5020837;28;49977;-77
2022/10/08 15:58:38;;;;;;;;;1.00;1.00;;;;;17.92;42.13;102161.56;5022359;28;49824;-74
2022/10/08 16:01:05;;;;;;;;;3.00;3.00;;;;;17.91;43.42;102165.09;5026072;28;50993;-72
2022/10/08 16:03:41;;;;;;;;;2.25;2.25;;;;;17.66;44.49;102135.53;5027612;28;50078;-76
2022/10/08 16:06:08;;;;;;;;;2.75;1.75;;;;;17.82;44.75;102165.88;5028661;28;49937;-78
2022/10/08 16:08:37;;;;;;;;;3.00;1.50;;;;;17.66;45.58;102143.50;5029213;28;50023;-75
2022/10/08 16:11:14;;;;;;;;;1.00;1.00;;;;;17.72;45.64;102172.81;5041539;28;50622;-75
2022/10/08 16:13:43;;;;;;;;;1.25;0.25;;;;;17.70;45.52;102184.31;5038193;28;49326;-75
2022/10/08 16:16:10;;;;;;;;;4.50;1.50;;;;;17.51;45.45;102153.00;5046278;28;49779;-75
2022/10/08 16:18:35;;;;;;;;;1.75;0.75;;;;;17.58;45.37;102181.44;5024176;28;50081;-75
2022/10/08 16:21:03;;;;;;;;;1.25;1.25;;;;;17.52;45.26;102179.56;5035874;28;50554;-72
2022/10/08 16:23:31;;;;;;;;;3.50;2.25;;;;;17.30;45.01;102142.97;5030849;28;50077;-78
2022/10/08 16:25:58;;;;;;;;;0.00;0.00;;;;;17.07;45.48;102116.94;5026909;28;49915;-71
2022/10/08 16:28:24;;;;;;;;;2.25;2.00;;;;;17.43;45.85;102182.09;5019468;28;50081;-73
2022/10/08 16:30:49;;;;;;;;;6.00;5.00;;;;;17.36;45.99;102174.91;5026357;28;50994;-73
2022/10/08 16:33:14;;;;;;;;;2.00;2.00;;;;;17.37;46.06;102184.63;5030142;28;49779;-73
2022/10/08 16:35:40;;;;;;;;;3.00;2.00;;;;;17.29;46.04;102175.69;5025581;28;49583;-73
2022/10/08 16:38:05;;;;;;;;;2.00;2.00;;;;;17.14;45.45;102161.28;5026913;28;59892;-75
2022/10/08 16:40:30;;;;;;;;;4.00;2.75;;;;;17.25;46.23;102187.09;5027289;28;69030;-74
2022/10/08 16:42:55;;;;;;;;;3.25;2.00;;;;;17.21;46.39;102193.25;5023010;28;59389;-75
2022/10/08 16:45:21;;;;;;;;;2.00;2.00;;;;;17.16;46.45;102188.75;5023760;28;66032;-75
2022/10/08 16:47:46;;;;;;;;;2.75;2.75;;;;;17.11;46.11;102194.84;5020972;28;50447;-72
2022/10/08 16:50:11;;;;;;;;;3.00;3.00;;;;;16.97;46.20;102184.00;5014090;28;52424;-74
2022/10/08 16:52:37;;;;;;;;;3.00;3.00;;;;;16.88;46.60;102170.56;5009337;28;63865;-75
2022/10/08 16:55:02;;;;;;;;;3.25;3.25;;;;;16.84;47.14;102174.06;5010128;28;49984;-80
2022/10/08 16:57:28;;;;;;;;;1.75;1.75;;;;;16.92;46.79;102198.06;5010125;28;49984;-74
2022/10/08 16:59:53;;;;;;;;;2.75;2.00;;;;;16.69;47.19;102173.75;5026474;28;49773;-77
2022/10/08 17:02:18;;;;;;;;;3.50;3.50;;;;;16.73;47.54;102186.22;5033685;28;49823;-76
2022/10/08 17:04:44;;;;;;;;;4.00;3.00;;;;;16.81;47.50;102208.47;5033585;28;49808;-79
2022/10/08 17:07:09;;;;;;;;;4.00;2.75;;;;;16.74;47.91;102203.94;5033617;28;49726;-82
2022/10/08 17:09:35;;;;;;;;;5.00;3.00;;;;;16.57;48.11;102191.19;5066032;28;50793;-76
2022/10/08 17:12:00;;;;;;;;;3.00;3.00;;;;;16.65;48.52;102212.56;5034734;28;50056;-74
2022/10/08 17:14:26;;;;;;;;;6.75;5.00;;;;;16.39;48.50;102179.34;5034899;28;49777;-75
2022/10/08 17:16:51;;;;;;;;;4.25;4.25;;;;;16.45;49.05;102201.56;5049749;28;49704;-75
2022/10/08 17:19:17;;;;;;;;;7.75;5.00;;;;;16.47;49.29;102215.75;5033827;28;50474;-75
2022/10/08 17:21:42;;;;;;;;;6.50;6.50;;;;;16.17;49.40;102178.94;5033888;28;49891;-75
2022/10/08 17:24:11;;;;;;;;;8.75;5.75;;;;;16.38;48.95;102212.91;5034486;28;49641;-75
2022/10/08 17:26:37;;;;;;;;;6.00;4.00;;;;;16.11;49.05;102191.16;5034079;28;49978;-75
2022/10/08 17:29:05;;;;;;;;;3.25;3.25;;;;;15.89;49.51;102158.03;5032855;28;53074;-76
2022/10/08 17:31:30;;;;;;;;;6.00;5.50;;;;;15.92;49.13;102174.91;5032874;28;49767;-78
2022/10/08 17:33:57;;;;;;;;;4.00;4.00;;;;;16.16;49.44;102224.84;5065386;28;50388;-76
2022/10/08 17:36:25;;;;;;;;;5.00;3.00;;;;;15.55;49.19;102144.03;5030513;28;50001;-77
2022/10/08 17:38:53;;;;;;;;;4.00;4.00;;;;;15.83;49.16;102202.94;5029651;28;49889;-85
2022/10/08 17:41:22;;;;;;;;;6.25;4.75;;;;;15.98;49.46;102221.78;5024182;28;49788;-73
2022/10/08 17:43:49;;;;;;;;;8.00;6.50;;;;;15.97;49.35;102239.44;5012512;28;49878;-73
2022/10/08 17:46:19;;;;;;;;;7.75;6.50;;;;;15.92;49.76;102233.16;5013313;28;49993;-71
2022/10/08 17:48:46;;;;;;;;;5.00;5.00;;;;;15.96;50.44;102245.59;5012822;28;51050;-79
2022/10/08 17:51:16;;;;;;;;;6.25;6.00;;;;;15.93;50.65;102242.00;5012505;28;49916;-69
2022/10/08 17:53:42;;;;;;;;;3.50;3.50;;;;;15.93;50.51;102242.91;5012641;28;49920;-75
2022/10/08 17:56:11;;;;;;;;;9.75;9.75;;;;;15.71;50.21;102216.75;5012800;28;49700;-75
2022/10/08 17:58:37;;;;;;;;;4.75;4.75;;;;;15.74;50.41;102235.41;5012423;28;51191;-76
2022/10/08 18:01:02;;;;;;;;;5.75;5.75;;;;;15.80;51.22;102251.41;5028825;28;49811;-75
2022/10/08 18:03:28;;;;;;;;;9.25;9.25;;;;;15.17;50.86;102151.97;5047940;28;49732;-79
2022/10/08 18:05:58;;;;;;;;;5.00;5.00;;;;;15.71;50.80;102245.88;5032885;28;50206;-78
2022/10/08 18:08:23;;;;;;;;;8.00;8.00;;;;;15.06;50.29;102160.53;5031910;28;50685;-77
2022/10/08 18:10:49;;;;;;;;;8.00;8.00;;;;;14.99;51.01;102154.19;5031898;28;49824;-77
2022/10/08 18:13:14;;;;;;;;;9.75;7.00;;;;;14.50;50.90;102071.00;5032043;28;49944;-76
2022/10/08 18:15:39;;;;;;;;;10.75;10.75;;;;;15.09;51.22;102198.50;5032402;28;49694;-79
2022/10/08 18:18:05;;;;;;;;;7.50;5.50;;;;;14.93;51.39;102172.53;5031988;28;49869;-78
2022/10/08 18:20:30;;;;;;;;;15.00;8.75;;;;;14.87;51.43;102180.31;5032196;28;50051;-77
2022/10/08 18:22:56;;;;;;;;;9.25;8.25;;;;;15.44;51.39;102260.25;5032208;28;49675;-74
2022/10/08 18:25:21;;;;;;;;;7.50;7.00;;;;;15.30;51.05;102255.44;5032354;28;49960;-79
2022/10/08 18:27:46;;;;;;;;;9.25;9.25;;;;;14.65;50.97;102154.16;5030402;28;51559;-78
2022/10/08 18:30:12;;;;;;;;;8.00;8.00;;;;;15.30;51.62;102268.69;5031710;28;49851;-75
2022/10/08 18:32:37;;;;;;;;;8.25;7.00;;;;;14.95;51.61;102218.41;5031992;28;49948;-73
2022/10/08 18:35:03;;;;;;;;;8.50;8.00;;;;;14.80;51.41;102210.97;5032361;28;49799;-80
2022/10/08 18:37:28;;;;;;;;;8.75;8.75;;;;;14.98;51.94;102230.84;5025554;28;50668;-82
2022/10/08 18:39:53;;;;;;;;;10.25;7.50;;;;;15.16;51.69;102276.28;5012620;28;49861;-81
2022/10/08 18:42:19;;;;;;;;;7.75;7.00;;;;;14.49;52.55;102163.44;5030973;28;49868;-79
2022/10/08 18:44:44;;;;;;;;;8.75;8.00;;;;;15.07;52.78;102278.69;5060538;28;50043;-82
2022/10/08 18:47:09;;;;;;;;;7.75;7.75;;;;;14.57;53.08;102205.09;5012107;28;49737;-81
2022/10/08 18:49:35;;;;;;;;;9.00;6.50;;;;;14.08;53.19;102126.16;5013492;28;58398;-82
2022/10/08 18:52:00;;;;;;;;;8.75;6.25;;;;;14.74;54.12;102258.38;5021515;28;49899;-81
2022/10/08 18:54:26;;;;;;;;;11.25;8.50;;;;;13.77;54.39;102105.03;5033815;28;49906;-83
2022/10/08 18:56:51;;;;;;;;;8.50;8.50;;;;;14.13;55.11;102187.94;5024882;28;51094;-80
2022/10/08 18:59:17;;;;;;;;;9.50;8.00;;;;;14.91;54.10;102282.66;5013921;28;49788;-77
2022/10/08 19:01:45;;;;;;;;;5.75;5.75;;;;;14.82;54.69;102295.63;5029071;28;50392;-82
2022/10/08 19:04:16;;;;;;;;;9.50;9.50;;;;;14.17;54.88;102194.19;5035970;28;50069;-78
2022/10/08 19:06:43;;;;;;;;;11.75;9.00;;;;;13.98;55.95;102184.84;5047216;28;49457;-75
2022/10/08 19:09:09;;;;;;;;;7.00;7.00;;;;;14.53;56.24;102285.13;5036706;28;49883;-88
2022/10/08 19:11:38;;;;;;;;;9.25;9.25;;;;;13.99;55.89;102207.75;5035405;28;49752;-79
2022/10/08 19:14:05;;;;;;;;;6.75;6.00;;;;;13.81;56.73;102192.28;5032995;28;49833;-78
2022/10/08 19:16:33;;;;;;;;;7.00;6.25;;;;;13.78;57.20;102199.19;5034471;28;50554;-77
2022/10/08 19:19:05;;;;;;;;;7.00;7.00;;;;;14.12;57.52;102278.59;5036722;28;49738;-83
2022/10/08 19:21:32;;;;;;;;;4.50;4.50;;;;;14.19;57.36;102293.78;5037520;28;49775;-81
2022/10/08 19:24:04;;;;;;;;;8.25;8.00;;;;;13.92;58.34;102263.88;5026418;28;49726;-88
2022/10/08 19:26:29;;;;;;;;;10.00;10.00;;;;;14.06;57.91;102294.22;5014805;28;49870;-83
2022/10/08 19:28:55;;;;;;;;;8.00;8.00;;;;;13.49;58.64;102228.19;5029715;28;49845;-79
2022/10/08 19:31:26;;;;;;;;;8.50;7.75;;;;;13.70;58.10;102272.84;5037507;28;49136;-80
2022/10/08 19:33:54;;;;;;;;;9.00;9.00;;;;;12.72;58.45;102105.22;5034647;28;49959;-87
2022/10/08 19:36:20;;;;;;;;;6.25;6.00;;;;;13.02;58.32;102171.22;5036194;28;50329;-80
2022/10/08 19:39:01;;;;;;;;;9.25;9.00;;;;;13.55;59.00;102253.88;5017191;28;49695;-80
2022/10/08 19:41:27;;;;;;;;;9.25;8.00;;;;;12.60;58.45;102101.31;5021262;28;49804;-83
2022/10/08 19:43:54;;;;;;;;;7.50;7.50;;;;;12.86;59.20;102154.03;5038267;28;49768;-86
2022/10/08 19:46:21;;;;;;;;;12.50;11.25;;;;;13.55;58.85;102285.56;5034658;28;52106;-86
2022/10/08 19:48:48;;;;;;;;;8.75;8.75;;;;;13.64;58.98;102304.31;5017683;28;49580;-82
2022/10/08 19:51:13;;;;;;;;;12.00;11.00;;;;;12.69;59.62;102136.75;5029475;28;49885;-82
2022/10/08 19:53:39;;;;;;;;;10.25;10.25;;;;;13.58;59.05;102315.56;5040750;28;49550;-83
2022/10/08 19:56:07;;;;;;;;;10.75;8.75;;;;;13.21;58.33;102246.59;5047232;28;50337;-81
2022/10/08 19:58:33;;;;;;;;;12.25;12.00;;;;;13.55;59.04;102304.91;5032200;28;49598;-81
2022/10/08 20:01:00;;;;;;;;;13.25;9.00;;;;;13.52;59.20;102302.19;5034733;28;49366;-82
2022/10/08 20:03:26;;;;;;;;;11.00;11.00;;;;;13.16;58.39;102260.50;5032230;28;49299;-76
2022/10/08 20:05:52;;;;;;;;;14.25;9.75;;;;;13.45;59.53;102303.72;5027220;28;50457;-76
2022/10/08 20:08:17;;;;;;;;;13.00;9.50;;;;;13.22;59.57;102287.94;5025479;28;49301;-77
2022/10/08 20:10:42;;;;;;;;;8.00;8.00;;;;;13.20;60.07;102285.25;5013402;28;50201;-79
2022/10/08 20:13:08;;;;;;;;;7.75;7.75;;;;;12.97;59.77;102258.06;5024686;28;49756;-74
2022/10/08 20:15:37;;;;;;;;;8.00;7.00;;;;;13.27;59.98;102313.63;5016572;28;49808;-76
2022/10/08 20:18:03;;;;;;;;;8.00;8.00;;;;;13.25;60.12;102312.69;5010198;28;49649;-82
2022/10/08 20:20:28;;;;;;;;;8.25;7.75;;;;;13.04;60.06;102289.09;5011917;28;50015;-76
2022/10/08 20:22:54;;;;;;;;;9.00;7.50;;;;;12.32;59.94;102156.53;5008967;28;49760;-78